sensor_id;sensor_type;location;lat;lon;timestamp;temperature;humidity
66861;SHT31;53770;42.334;23.550;2022-10-31T01:28:06;9.25;70.75
66861;SHT31;53770;42.334;23.550;2022-10-31T01:30:33;9.62;69.50
66861;SHT31;53770;42.334;23.550;2022-10-31T01:33:00;10.16;67.58
66861;SHT31;53770;42.334;23.550;2022-10-31T01:35:26;10.42;66.44
66861;SHT31;53770;42.334;23.550;2022-10-31T01:37:54;10.65;65.55
66861;SHT31;53770;42.334;23.550;2022-10-31T01:40:21;10.75;65.17
66861;SHT31;53770;42.334;23.550;2022-10-31T01:42:48;10.80;64.86
66861;SHT31;53770;42.334;23.550;2022-10-31T01:45:17;10.91;64.54
66861;SHT31;53770;42.334;23.550;2022-10-31T01:47:45;10.91;64.56
66861;SHT31;53770;42.334;23.550;2022-10-31T01:50:19;10.99;64.19
66861;SHT31;53770;42.334;23.550;2022-10-31T01:52:51;11.06;63.90
66861;SHT31;53770;42.334;23.550;2022-10-31T01:55:21;11.19;63.38
66861;SHT31;53770;42.334;23.550;2022-10-31T01:57:51;11.22;63.39
66861;SHT31;53770;42.334;23.550;2022-10-31T02:00:21;11.22;63.39
66861;SHT31;53770;42.334;23.550;2022-10-31T02:02:49;11.24;63.31
66861;SHT31;53770;42.334;23.550;2022-10-31T02:05:19;11.23;63.28
66861;SHT31;53770;42.334;23.550;2022-10-31T02:07:51;11.16;63.58
66861;SHT31;53770;42.334;23.550;2022-10-31T02:10:20;11.16;63.59
66861;SHT31;53770;42.334;23.550;2022-10-31T02:12:47;11.22;63.62
66861;SHT31;53770;42.334;23.550;2022-10-31T02:15:15;11.33;63.25
66861;SHT31;53770;42.334;23.550;2022-10-31T02:17:43;11.45;63.00
66861;SHT31;53770;42.334;23.550;2022-10-31T02:20:14;11.62;62.34
66861;SHT31;53770;42.334;23.550;2022-10-31T02:25:56;11.74;62.02
66861;SHT31;53770;42.334;23.550;2022-10-31T02:28:40;11.93;61.48
66861;SHT31;53770;42.334;23.550;2022-10-31T02:31:22;12.02;61.16
66861;SHT31;53770;42.334;23.550;2022-10-31T02:33:52;12.10;61.00
66861;SHT31;53770;42.334;23.550;2022-10-31T02:36:23;12.19;60.91
66861;SHT31;53770;42.334;23.550;2022-10-31T02:38:59;12.34;60.28
66861;SHT31;53770;42.334;23.550;2022-10-31T02:41:34;12.43;60.02
66861;SHT31;53770;42.334;23.550;2022-10-31T02:44:07;12.51;59.68
66861;SHT31;53770;42.334;23.550;2022-10-31T02:46:41;12.64;59.33
66861;SHT31;53770;42.334;23.550;2022-10-31T02:49:16;12.73;59.11
66861;SHT31;53770;42.334;23.550;2022-10-31T02:51:45;12.77;58.86
66861;SHT31;53770;42.334;23.550;2022-10-31T02:54:19;12.81;58.68
66861;SHT31;53770;42.334;23.550;2022-10-31T02:56:48;12.85;58.64
66861;SHT31;53770;42.334;23.550;2022-10-31T02:59:16;12.98;58.29
66861;SHT31;53770;42.334;23.550;2022-10-31T03:01:59;13.16;57.92
66861;SHT31;53770;42.334;23.550;2022-10-31T03:04:57;13.24;57.72
66861;SHT31;53770;42.334;23.550;2022-10-31T03:07:30;13.32;57.35
66861;SHT31;53770;42.334;23.550;2022-10-31T03:10:04;13.26;57.42
66861;SHT31;53770;42.334;23.550;2022-10-31T03:12:38;13.35;57.13
66861;SHT31;53770;42.334;23.550;2022-10-31T03:15:12;13.24;57.37
66861;SHT31;53770;42.334;23.550;2022-10-31T03:17:47;13.36;57.23
66861;SHT31;53770;42.334;23.550;2022-10-31T03:20:17;13.40;56.92
66861;SHT31;53770;42.334;23.550;2022-10-31T03:22:46;13.27;57.24
66861;SHT31;53770;42.334;23.550;2022-10-31T03:25:13;13.32;57.10
66861;SHT31;53770;42.334;23.550;2022-10-31T03:27:41;13.26;57.27
66861;SHT31;53770;42.334;23.550;2022-10-31T03:30:10;13.35;56.93
66861;SHT31;53770;42.334;23.550;2022-10-31T03:32:42;13.33;57.14
66861;SHT31;53770;42.334;23.550;2022-10-31T03:35:11;13.42;56.75
66861;SHT31;53770;42.334;23.550;2022-10-31T03:37:41;13.33;57.05
66861;SHT31;53770;42.334;23.550;2022-10-31T03:40:11;13.26;57.32
66861;SHT31;53770;42.334;23.550;2022-10-31T03:42:40;13.13;57.68
66861;SHT31;53770;42.334;23.550;2022-10-31T03:45:12;13.08;57.86
66861;SHT31;53770;42.334;23.550;2022-10-31T03:47:42;12.92;58.59
66861;SHT31;53770;42.334;23.550;2022-10-31T03:50:11;12.87;58.74
66861;SHT31;53770;42.334;23.550;2022-10-31T03:52:44;12.75;59.06
66861;SHT31;53770;42.334;23.550;2022-10-31T03:55:17;12.82;58.99
66861;SHT31;53770;42.334;23.550;2022-10-31T03:57:49;12.80;59.02
66861;SHT31;53770;42.334;23.550;2022-10-31T04:00:18;12.64;59.37
66861;SHT31;53770;42.334;23.550;2022-10-31T04:02:50;12.58;59.68
66861;SHT31;53770;42.334;23.550;2022-10-31T04:05:18;12.51;59.84
66861;SHT31;53770;42.334;23.550;2022-10-31T04:07:50;12.54;59.86
66861;SHT31;53770;42.334;23.550;2022-10-31T04:10:19;12.61;59.74
66861;SHT31;53770;42.334;23.550;2022-10-31T04:12:53;12.65;59.76
66861;SHT31;53770;42.334;23.550;2022-10-31T04:15:22;12.77;59.49
66861;SHT31;53770;42.334;23.550;2022-10-31T04:17:52;12.78;59.46
66861;SHT31;53770;42.334;23.550;2022-10-31T04:20:29;12.91;59.24
66861;SHT31;53770;42.334;23.550;2022-10-31T04:22:56;13.05;58.74
66861;SHT31;53770;42.334;23.550;2022-10-31T04:25:26;13.22;58.23
66861;SHT31;53770;42.334;23.550;2022-10-31T04:27:53;13.32;57.97
66861;SHT31;53770;42.334;23.550;2022-10-31T04:30:20;13.46;57.46
66861;SHT31;53770;42.334;23.550;2022-10-31T04:32:47;13.57;57.23
66861;SHT31;53770;42.334;23.550;2022-10-31T04:35:17;13.66;57.00
66861;SHT31;53770;42.334;23.550;2022-10-31T04:37:44;13.67;56.83
66861;SHT31;53770;42.334;23.550;2022-10-31T04:40:13;13.70;56.82
66861;SHT31;53770;42.334;23.550;2022-10-31T04:42:40;13.70;56.83
66861;SHT31;53770;42.334;23.550;2022-10-31T04:45:07;13.71;56.79
66861;SHT31;53770;42.334;23.550;2022-10-31T04:47:34;13.73;56.74
66861;SHT31;53770;42.334;23.550;2022-10-31T04:50:01;13.75;56.62
66861;SHT31;53770;42.334;23.550;2022-10-31T04:52:29;13.61;56.97
66861;SHT31;53770;42.334;23.550;2022-10-31T04:54:56;13.49;57.54
66861;SHT31;53770;42.334;23.550;2022-10-31T04:57:23;13.47;57.64
66861;SHT31;53770;42.334;23.550;2022-10-31T04:59:50;13.49;57.63
66861;SHT31;53770;42.334;23.550;2022-10-31T05:02:16;13.44;57.78
66861;SHT31;53770;42.334;23.550;2022-10-31T05:04:43;13.47;57.75
66861;SHT31;53770;42.334;23.550;2022-10-31T05:07:10;13.54;57.63
66861;SHT31;53770;42.334;23.550;2022-10-31T05:09:38;13.64;57.29
66861;SHT31;53770;42.334;23.550;2022-10-31T05:12:05;13.60;57.37
66861;SHT31;53770;42.334;23.550;2022-10-31T05:14:32;13.61;57.32
66861;SHT31;53770;42.334;23.550;2022-10-31T05:16:59;13.63;57.19
66861;SHT31;53770;42.334;23.550;2022-10-31T05:19:26;13.64;57.30
66861;SHT31;53770;42.334;23.550;2022-10-31T05:21:53;13.50;57.73
66861;SHT31;53770;42.334;23.550;2022-10-31T05:24:22;13.30;58.28
66861;SHT31;53770;42.334;23.550;2022-10-31T05:26:50;13.39;57.98
66861;SHT31;53770;42.334;23.550;2022-10-31T05:29:17;13.38;58.04
66861;SHT31;53770;42.334;23.550;2022-10-31T05:31:44;13.38;58.07
66861;SHT31;53770;42.334;23.550;2022-10-31T05:34:10;13.30;58.31
66861;SHT31;53770;42.334;23.550;2022-10-31T05:36:37;13.18;58.97
66861;SHT31;53770;42.334;23.550;2022-10-31T05:39:04;13.05;59.34
66861;SHT31;53770;42.334;23.550;2022-10-31T05:41:31;12.99;59.44
66861;SHT31;53770;42.334;23.550;2022-10-31T05:44:08;13.01;59.59
66861;SHT31;53770;42.334;23.550;2022-10-31T05:46:35;12.95;59.71
66861;SHT31;53770;42.334;23.550;2022-10-31T05:49:02;12.92;60.00
66861;SHT31;53770;42.334;23.550;2022-10-31T05:51:28;13.03;59.84
66861;SHT31;53770;42.334;23.550;2022-10-31T05:54:11;12.98;60.04
66861;SHT31;53770;42.334;23.550;2022-10-31T05:56:38;13.09;59.76
66861;SHT31;53770;42.334;23.550;2022-10-31T05:59:05;13.11;59.73
66861;SHT31;53770;42.334;23.550;2022-10-31T06:01:33;13.22;59.61
66861;SHT31;53770;42.334;23.550;2022-10-31T06:04:02;13.27;59.47
66861;SHT31;53770;42.334;23.550;2022-10-31T06:06:29;13.40;59.17
66861;SHT31;53770;42.334;23.550;2022-10-31T06:08:56;13.50;58.88
66861;SHT31;53770;42.334;23.550;2022-10-31T06:11:31;13.51;58.97
66861;SHT31;53770;42.334;23.550;2022-10-31T06:13:58;13.57;58.73
66861;SHT31;53770;42.334;23.550;2022-10-31T06:16:25;13.53;58.99
66861;SHT31;53770;42.334;23.550;2022-10-31T06:18:53;13.61;58.89
66861;SHT31;53770;42.334;23.550;2022-10-31T06:21:20;13.85;58.20
66861;SHT31;53770;42.334;23.550;2022-10-31T06:23:46;14.22;57.03
66861;SHT31;53770;42.334;23.550;2022-10-31T06:26:13;14.25;57.09
66861;SHT31;53770;42.334;23.550;2022-10-31T06:28:40;14.25;57.20
66861;SHT31;53770;42.334;23.550;2022-10-31T06:31:07;14.55;56.33
66861;SHT31;53770;42.334;23.550;2022-10-31T06:33:34;14.71;56.15
66861;SHT31;53770;42.334;23.550;2022-10-31T06:36:02;15.01;55.11
66861;SHT31;53770;42.334;23.550;2022-10-31T06:38:29;15.18;54.76
66861;SHT31;53770;42.334;23.550;2022-10-31T06:40:56;15.43;54.03
66861;SHT31;53770;42.334;23.550;2022-10-31T06:43:23;15.53;54.10
66861;SHT31;53770;42.334;23.550;2022-10-31T06:45:50;15.74;53.35
66861;SHT31;53770;42.334;23.550;2022-10-31T06:48:16;15.94;52.96
66861;SHT31;53770;42.334;23.550;2022-10-31T06:50:43;16.17;52.51
66861;SHT31;53770;42.334;23.550;2022-10-31T06:53:11;16.49;51.81
66861;SHT31;53770;42.334;23.550;2022-10-31T06:55:39;16.79;51.33
66861;SHT31;53770;42.334;23.550;2022-10-31T06:58:06;16.97;50.43
66861;SHT31;53770;42.334;23.550;2022-10-31T07:00:33;17.25;49.90
66861;SHT31;53770;42.334;23.550;2022-10-31T07:03:02;17.46;48.71
66861;SHT31;53770;42.334;23.550;2022-10-31T07:05:29;17.41;49.00
66861;SHT31;53770;42.334;23.550;2022-10-31T07:08:04;17.56;48.86
66861;SHT31;53770;42.334;23.550;2022-10-31T07:10:41;17.82;48.60
66861;SHT31;53770;42.334;23.550;2022-10-31T07:13:11;18.10;47.86
66861;SHT31;53770;42.334;23.550;2022-10-31T07:15:38;18.18;47.57
66861;SHT31;53770;42.334;23.550;2022-10-31T07:18:07;18.45;46.99
66861;SHT31;53770;42.334;23.550;2022-10-31T07:20:35;18.62;46.44
66861;SHT31;53770;42.334;23.550;2022-10-31T07:23:03;18.89;45.85
66861;SHT31;53770;42.334;23.550;2022-10-31T07:25:30;19.12;45.55
66861;SHT31;53770;42.334;23.550;2022-10-31T07:27:58;19.53;44.83
66861;SHT31;53770;42.334;23.550;2022-10-31T07:30:25;19.82;43.93
66861;SHT31;53770;42.334;23.550;2022-10-31T07:32:52;20.13;43.44
66861;SHT31;53770;42.334;23.550;2022-10-31T07:35:20;20.46;42.51
66861;SHT31;53770;42.334;23.550;2022-10-31T07:37:47;20.70;42.07
66861;SHT31;53770;42.334;23.550;2022-10-31T07:40:15;21.01;41.51
66861;SHT31;53770;42.334;23.550;2022-10-31T07:42:43;21.28;40.40
66861;SHT31;53770;42.334;23.550;2022-10-31T07:45:17;21.54;40.20
66861;SHT31;53770;42.334;23.550;2022-10-31T07:47:45;21.87;39.70
66861;SHT31;53770;42.334;23.550;2022-10-31T07:50:14;22.19;38.88
66861;SHT31;53770;42.334;23.550;2022-10-31T07:52:41;22.45;38.29
66861;SHT31;53770;42.334;23.550;2022-10-31T07:55:09;22.74;38.22
66861;SHT31;53770;42.334;23.550;2022-10-31T07:57:36;23.11;37.85
66861;SHT31;53770;42.334;23.550;2022-10-31T08:00:03;23.52;37.17
66861;SHT31;53770;42.334;23.550;2022-10-31T08:02:31;23.86;36.57
66861;SHT31;53770;42.334;23.550;2022-10-31T08:04:58;24.13;36.49
66861;SHT31;53770;42.334;23.550;2022-10-31T08:07:28;24.51;35.39
66861;SHT31;53770;42.334;23.550;2022-10-31T08:09:55;24.62;34.64
66861;SHT31;53770;42.334;23.550;2022-10-31T08:12:22;24.83;34.24
66861;SHT31;53770;42.334;23.550;2022-10-31T08:14:49;25.16;34.64
66861;SHT31;53770;42.334;23.550;2022-10-31T08:17:16;25.48;33.73
66861;SHT31;53770;42.334;23.550;2022-10-31T08:19:46;25.89;33.23
66861;SHT31;53770;42.334;23.550;2022-10-31T08:22:13;26.33;32.46
66861;SHT31;53770;42.334;23.550;2022-10-31T08:24:39;26.71;32.36
66861;SHT31;53770;42.334;23.550;2022-10-31T08:27:09;27.19;31.82
66861;SHT31;53770;42.334;23.550;2022-10-31T08:29:36;27.69;30.25
66861;SHT31;53770;42.334;23.550;2022-10-31T08:32:03;28.09;29.75
66861;SHT31;53770;42.334;23.550;2022-10-31T08:34:30;28.36;28.93
66861;SHT31;53770;42.334;23.550;2022-10-31T08:36:58;28.67;28.38
66861;SHT31;53770;42.334;23.550;2022-10-31T08:39:25;28.90;27.92
66861;SHT31;53770;42.334;23.550;2022-10-31T08:41:51;29.34;27.92
66861;SHT31;53770;42.334;23.550;2022-10-31T08:44:18;29.62;27.28
66861;SHT31;53770;42.334;23.550;2022-10-31T08:46:45;30.14;26.79
66861;SHT31;53770;42.334;23.550;2022-10-31T08:49:12;30.54;26.23
66861;SHT31;53770;42.334;23.550;2022-10-31T08:51:38;31.06;26.37
66861;SHT31;53770;42.334;23.550;2022-10-31T08:54:07;31.67;25.16
66861;SHT31;53770;42.334;23.550;2022-10-31T08:56:34;32.01;25.04
66861;SHT31;53770;42.334;23.550;2022-10-31T08:59:01;32.39;24.29
66861;SHT31;53770;42.334;23.550;2022-10-31T09:01:27;32.87;23.43
66861;SHT31;53770;42.334;23.550;2022-10-31T09:03:54;33.49;23.10
66861;SHT31;53770;42.334;23.550;2022-10-31T09:06:21;34.15;22.49
66861;SHT31;53770;42.334;23.550;2022-10-31T09:08:48;34.78;22.12
66861;SHT31;53770;42.334;23.550;2022-10-31T09:11:19;34.86;22.03
66861;SHT31;53770;42.334;23.550;2022-10-31T09:13:46;35.45;21.13
66861;SHT31;53770;42.334;23.550;2022-10-31T09:16:13;35.91;20.61
66861;SHT31;53770;42.334;23.550;2022-10-31T09:18:39;36.30;20.14
66861;SHT31;53770;42.334;23.550;2022-10-31T09:21:07;36.91;20.04
66861;SHT31;53770;42.334;23.550;2022-10-31T09:23:34;37.23;19.53
66861;SHT31;53770;42.334;23.550;2022-10-31T09:26:01;37.72;19.08
66861;SHT31;53770;42.334;23.550;2022-10-31T09:28:29;38.24;18.79
66861;SHT31;53770;42.334;23.550;2022-10-31T09:30:57;38.80;18.29
66861;SHT31;53770;42.334;23.550;2022-10-31T09:33:23;39.14;17.92
66861;SHT31;53770;42.334;23.550;2022-10-31T09:35:50;39.62;17.65
66861;SHT31;53770;42.334;23.550;2022-10-31T09:38:19;40.20;17.30
66861;SHT31;53770;42.334;23.550;2022-10-31T09:40:47;40.60;16.92
66861;SHT31;53770;42.334;23.550;2022-10-31T09:43:21;41.03;16.96
66861;SHT31;53770;42.334;23.550;2022-10-31T09:46:00;41.11;16.38
66861;SHT31;53770;42.334;23.550;2022-10-31T09:48:36;41.35;16.54
66861;SHT31;53770;42.334;23.550;2022-10-31T09:51:06;41.38;16.15
66861;SHT31;53770;42.334;23.550;2022-10-31T09:53:39;41.18;16.41
66861;SHT31;53770;42.334;23.550;2022-10-31T09:56:11;40.96;16.37
66861;SHT31;53770;42.334;23.550;2022-10-31T09:58:42;41.83;16.13
66861;SHT31;53770;42.334;23.550;2022-10-31T10:01:22;42.64;15.66
66861;SHT31;53770;42.334;23.550;2022-10-31T10:03:56;43.29;15.06
66861;SHT31;53770;42.334;23.550;2022-10-31T10:06:25;43.22;15.19
66861;SHT31;53770;42.334;23.550;2022-10-31T10:08:54;43.72;14.84
66861;SHT31;53770;42.334;23.550;2022-10-31T10:11:37;44.38;15.02
66861;SHT31;53770;42.334;23.550;2022-10-31T10:14:19;44.71;14.40
66861;SHT31;53770;42.334;23.550;2022-10-31T10:16:58;44.57;14.41
66861;SHT31;53770;42.334;23.550;2022-10-31T10:22:42;45.52;14.19
66861;SHT31;53770;42.334;23.550;2022-10-31T10:25:15;46.14;13.60
66861;SHT31;53770;42.334;23.550;2022-10-31T10:27:49;46.33;13.37
66861;SHT31;53770;42.334;23.550;2022-10-31T10:30:19;46.76;13.47
66861;SHT31;53770;42.334;23.550;2022-10-31T10:32:55;46.99;13.10
66861;SHT31;53770;42.334;23.550;2022-10-31T10:35:27;47.37;13.03
66861;SHT31;53770;42.334;23.550;2022-10-31T10:38:00;47.26;13.39
66861;SHT31;53770;42.334;23.550;2022-10-31T10:40:29;47.54;12.78
66861;SHT31;53770;42.334;23.550;2022-10-31T10:43:01;47.93;12.71
66861;SHT31;53770;42.334;23.550;2022-10-31T10:45:52;48.34;12.67
66861;SHT31;53770;42.334;23.550;2022-10-31T10:48:43;48.27;13.29
66861;SHT31;53770;42.334;23.550;2022-10-31T10:51:21;48.15;12.32
66861;SHT31;53770;42.334;23.550;2022-10-31T10:54:10;48.59;12.77
66861;SHT31;53770;42.334;23.550;2022-10-31T10:56:49;48.98;12.35
66861;SHT31;53770;42.334;23.550;2022-10-31T10:59:20;49.05;11.99
66861;SHT31;53770;42.334;23.550;2022-10-31T11:01:48;48.77;12.28
66861;SHT31;53770;42.334;23.550;2022-10-31T11:04:30;48.77;11.95
66861;SHT31;53770;42.334;23.550;2022-10-31T11:07:01;48.22;12.13
66861;SHT31;53770;42.334;23.550;2022-10-31T11:09:28;48.15;12.41
66861;SHT31;53770;42.334;23.550;2022-10-31T11:11:55;47.60;12.74
66861;SHT31;53770;42.334;23.550;2022-10-31T11:14:23;47.40;12.82
66861;SHT31;53770;42.334;23.550;2022-10-31T11:16:54;46.85;12.89
66861;SHT31;53770;42.334;23.550;2022-10-31T11:19:23;45.46;13.52
66861;SHT31;53770;42.334;23.550;2022-10-31T11:21:52;45.36;13.56
66861;SHT31;53770;42.334;23.550;2022-10-31T11:24:21;44.30;14.07
66861;SHT31;53770;42.334;23.550;2022-10-31T11:26:49;43.08;14.82
66861;SHT31;53770;42.334;23.550;2022-10-31T11:29:20;42.05;15.52
66861;SHT31;53770;42.334;23.550;2022-10-31T11:31:51;41.21;15.88
66861;SHT31;53770;42.334;23.550;2022-10-31T11:34:27;41.16;16.14
66861;SHT31;53770;42.334;23.550;2022-10-31T11:37:02;41.90;15.96
66861;SHT31;53770;42.334;23.550;2022-10-31T11:39:32;42.76;15.22
66861;SHT31;53770;42.334;23.550;2022-10-31T11:42:01;43.92;14.52
66861;SHT31;53770;42.334;23.550;2022-10-31T11:44:30;44.60;13.96
66861;SHT31;53770;42.334;23.550;2022-10-31T11:46:59;45.33;13.83
66861;SHT31;53770;42.334;23.550;2022-10-31T11:49:31;46.11;13.34
66861;SHT31;53770;42.334;23.550;2022-10-31T11:52:01;46.73;13.23
66861;SHT31;53770;42.334;23.550;2022-10-31T11:54:41;47.37;12.72
66861;SHT31;53770;42.334;23.550;2022-10-31T11:57:22;47.79;12.60
66861;SHT31;53770;42.334;23.550;2022-10-31T11:59:53;47.51;12.76
66861;SHT31;53770;42.334;23.550;2022-10-31T12:02:20;47.72;12.63
66861;SHT31;53770;42.334;23.550;2022-10-31T12:04:54;47.86;12.43
66861;SHT31;53770;42.334;23.550;2022-10-31T12:07:24;48.13;12.59
66861;SHT31;53770;42.334;23.550;2022-10-31T12:09:50;47.74;12.32
66861;SHT31;53770;42.334;23.550;2022-10-31T12:12:45;47.82;12.70
66861;SHT31;53770;42.334;23.550;2022-10-31T12:15:29;48.16;12.29
66861;SHT31;53770;42.334;23.550;2022-10-31T12:20:53;48.32;12.38
66861;SHT31;53770;42.334;23.550;2022-10-31T12:23:32;48.47;11.89
66861;SHT31;53770;42.334;23.550;2022-10-31T12:26:12;48.09;12.33
66861;SHT31;53770;42.334;23.550;2022-10-31T12:28:51;48.30;12.15
66861;SHT31;53770;42.334;23.550;2022-10-31T12:31:32;48.37;12.10
66861;SHT31;53770;42.334;23.550;2022-10-31T12:34:19;48.59;11.99
66861;SHT31;53770;42.334;23.550;2022-10-31T12:36:56;48.71;12.02
66861;SHT31;53770;42.334;23.550;2022-10-31T12:39:34;48.93;11.73
66861;SHT31;53770;42.334;23.550;2022-10-31T12:42:13;48.42;11.92
66861;SHT31;53770;42.334;23.550;2022-10-31T12:45:09;47.75;12.17
66861;SHT31;53770;42.334;23.550;2022-10-31T12:47:58;47.11;12.37
66861;SHT31;53770;42.334;23.550;2022-10-31T12:50:38;45.66;13.22
66861;SHT31;53770;42.334;23.550;2022-10-31T12:53:23;43.19;14.16
66861;SHT31;53770;42.334;23.550;2022-10-31T12:56:02;41.29;15.25
66861;SHT31;53770;42.334;23.550;2022-10-31T12:58:35;41.57;15.24
66861;SHT31;53770;42.334;23.550;2022-10-31T13:01:11;41.46;15.34
66861;SHT31;53770;42.334;23.550;2022-10-31T13:03:46;39.95;16.31
66861;SHT31;53770;42.334;23.550;2022-10-31T13:06:18;38.38;17.15
66861;SHT31;53770;42.334;23.550;2022-10-31T13:08:49;38.38;17.50
66861;SHT31;53770;42.334;23.550;2022-10-31T13:11:21;39.11;16.92
66861;SHT31;53770;42.334;23.550;2022-10-31T13:13:56;39.78;16.52
66861;SHT31;53770;42.334;23.550;2022-10-31T13:16:30;40.46;16.00
66861;SHT31;53770;42.334;23.550;2022-10-31T13:19:03;41.13;15.69
66861;SHT31;53770;42.334;23.550;2022-10-31T13:21:37;41.45;15.39
66861;SHT31;53770;42.334;23.550;2022-10-31T13:24:08;41.84;15.22
66861;SHT31;53770;42.334;23.550;2022-10-31T13:26:43;42.28;14.96
66861;SHT31;53770;42.334;23.550;2022-10-31T13:29:17;42.62;14.79
66861;SHT31;53770;42.334;23.550;2022-10-31T13:31:45;42.63;14.75
66861;SHT31;53770;42.334;23.550;2022-10-31T13:34:20;43.03;14.60
66861;SHT31;53770;42.334;23.550;2022-10-31T13:37:01;43.07;14.65
66861;SHT31;53770;42.334;23.550;2022-10-31T13:39:39;43.10;14.64
66861;SHT31;53770;42.334;23.550;2022-10-31T13:42:18;43.25;14.64
66861;SHT31;53770;42.334;23.550;2022-10-31T13:44:46;43.18;14.48
66861;SHT31;53770;42.334;23.550;2022-10-31T13:47:25;43.07;14.57
66861;SHT31;53770;42.334;23.550;2022-10-31T13:50:03;42.84;14.68
66861;SHT31;53770;42.334;23.550;2022-10-31T13:52:31;42.03;15.14
66861;SHT31;53770;42.334;23.550;2022-10-31T13:54:58;40.53;15.89
66861;SHT31;53770;42.334;23.550;2022-10-31T14:44:37;23.58;34.63
66861;SHT31;53770;42.334;23.550;2022-10-31T14:47:16;23.61;34.11
66861;SHT31;53770;42.334;23.550;2022-10-31T14:50:17;23.58;34.21
66861;SHT31;53770;42.334;23.550;2022-10-31T14:52:49;23.34;34.69
66861;SHT31;53770;42.334;23.550;2022-10-31T14:55:18;23.14;34.94
66861;SHT31;53770;42.334;23.550;2022-10-31T14:57:51;23.06;35.15
66861;SHT31;53770;42.334;23.550;2022-10-31T15:00:22;22.94;35.16
66861;SHT31;53770;42.334;23.550;2022-10-31T15:03:00;22.72;35.63
66861;SHT31;53770;42.334;23.550;2022-10-31T15:05:29;22.46;35.92
66861;SHT31;53770;42.334;23.550;2022-10-31T15:07:58;22.35;36.40
66861;SHT31;53770;42.334;23.550;2022-10-31T15:10:27;22.19;36.64
66861;SHT31;53770;42.334;23.550;2022-10-31T15:12:55;22.00;37.02
66861;SHT31;53770;42.334;23.550;2022-10-31T15:15:25;21.83;37.34
66861;SHT31;53770;42.334;23.550;2022-10-31T15:17:53;21.66;37.74
66861;SHT31;53770;42.334;23.550;2022-10-31T15:20:22;21.49;38.11
66861;SHT31;53770;42.334;23.550;2022-10-31T15:22:50;21.29;38.35
66861;SHT31;53770;42.334;23.550;2022-10-31T15:25:18;21.15;38.75
66861;SHT31;53770;42.334;23.550;2022-10-31T15:27:47;20.94;39.14
66861;SHT31;53770;42.334;23.550;2022-10-31T15:30:17;20.78;39.50
66861;SHT31;53770;42.334;23.550;2022-10-31T15:32:46;20.63;39.89
66861;SHT31;53770;42.334;23.550;2022-10-31T15:35:20;20.50;40.23
66861;SHT31;53770;42.334;23.550;2022-10-31T15:37:48;20.29;40.44
66861;SHT31;53770;42.334;23.550;2022-10-31T15:40:16;20.16;41.11
66861;SHT31;53770;42.334;23.550;2022-10-31T15:42:47;20.02;41.82
66861;SHT31;53770;42.334;23.550;2022-10-31T15:45:19;19.82;42.56
66861;SHT31;53770;42.334;23.550;2022-10-31T15:47:53;19.67;43.25
66861;SHT31;53770;42.334;23.550;2022-10-31T15:50:23;19.41;44.01
66861;SHT31;53770;42.334;23.550;2022-10-31T15:52:52;19.05;45.00
66861;SHT31;53770;42.334;23.550;2022-10-31T15:55:20;18.79;45.77
66861;SHT31;53770;42.334;23.550;2022-10-31T15:57:49;18.55;46.47
66861;SHT31;53770;42.334;23.550;2022-10-31T16:00:25;18.36;46.95
66861;SHT31;53770;42.334;23.550;2022-10-31T16:03:05;18.17;47.43
66861;SHT31;53770;42.334;23.550;2022-10-31T16:05:36;17.92;47.84
66861;SHT31;53770;42.334;23.550;2022-10-31T16:08:03;17.72;48.26
66861;SHT31;53770;42.334;23.550;2022-10-31T16:10:33;17.65;48.54
66861;SHT31;53770;42.334;23.550;2022-10-31T16:13:00;17.46;48.87
66861;SHT31;53770;42.334;23.550;2022-10-31T16:15:28;17.42;49.00
66861;SHT31;53770;42.334;23.550;2022-10-31T16:17:56;17.27;49.08
66861;SHT31;53770;42.334;23.550;2022-10-31T16:20:27;17.27;49.19
66861;SHT31;53770;42.334;23.550;2022-10-31T16:22:58;17.16;49.44
66861;SHT31;53770;42.334;23.550;2022-10-31T16:25:27;16.99;49.87
66861;SHT31;53770;42.334;23.550;2022-10-31T16:27:58;16.90;50.27
66861;SHT31;53770;42.334;23.550;2022-10-31T16:30:35;16.87;50.36
66861;SHT31;53770;42.334;23.550;2022-10-31T16:33:05;16.77;50.53
66861;SHT31;53770;42.334;23.550;2022-10-31T16:35:34;16.65;50.88
66861;SHT31;53770;42.334;23.550;2022-10-31T16:38:02;16.59;51.03
66861;SHT31;53770;42.334;23.550;2022-10-31T16:40:30;16.47;51.44
66861;SHT31;53770;42.334;23.550;2022-10-31T16:42:58;16.32;51.94
66861;SHT31;53770;42.334;23.550;2022-10-31T16:45:27;16.25;52.16
66861;SHT31;53770;42.334;23.550;2022-10-31T16:47:54;16.20;52.31
66861;SHT31;53770;42.334;23.550;2022-10-31T16:50:27;16.10;52.45
66861;SHT31;53770;42.334;23.550;2022-10-31T16:52:55;16.00;52.78
66861;SHT31;53770;42.334;23.550;2022-10-31T16:55:22;15.91;52.85
66861;SHT31;53770;42.334;23.550;2022-10-31T16:57:50;15.83;53.12
66861;SHT31;53770;42.334;23.550;2022-10-31T17:00:19;15.80;53.33
66861;SHT31;53770;42.334;23.550;2022-10-31T17:02:47;15.66;53.61
66861;SHT31;53770;42.334;23.550;2022-10-31T17:05:17;15.62;53.70
66861;SHT31;53770;42.334;23.550;2022-10-31T17:07:44;15.53;53.99
66861;SHT31;53770;42.334;23.550;2022-10-31T17:10:13;15.46;54.13
66861;SHT31;53770;42.334;23.550;2022-10-31T17:12:45;15.43;54.21
66861;SHT31;53770;42.334;23.550;2022-10-31T17:15:16;15.38;54.31
66861;SHT31;53770;42.334;23.550;2022-10-31T17:17:44;15.36;54.39
66861;SHT31;53770;42.334;23.550;2022-10-31T17:20:18;15.28;54.62
66861;SHT31;53770;42.334;23.550;2022-10-31T17:22:46;15.21;54.82
66861;SHT31;53770;42.334;23.550;2022-10-31T17:25:15;15.15;55.03
66861;SHT31;53770;42.334;23.550;2022-10-31T17:27:42;15.18;55.00
66861;SHT31;53770;42.334;23.550;2022-10-31T17:30:11;15.12;55.04
66861;SHT31;53770;42.334;23.550;2022-10-31T17:32:38;15.08;55.19
66861;SHT31;53770;42.334;23.550;2022-10-31T17:35:06;15.01;55.35
66861;SHT31;53770;42.334;23.550;2022-10-31T17:37:33;14.97;55.49
66861;SHT31;53770;42.334;23.550;2022-10-31T17:39:59;14.85;55.68
66861;SHT31;53770;42.334;23.550;2022-10-31T17:42:28;14.83;55.82
66861;SHT31;53770;42.334;23.550;2022-10-31T17:44:55;14.85;55.86
66861;SHT31;53770;42.334;23.550;2022-10-31T17:47:21;14.84;55.71
66861;SHT31;53770;42.334;23.550;2022-10-31T17:49:49;14.85;55.77
66861;SHT31;53770;42.334;23.550;2022-10-31T17:52:17;14.80;55.85
66861;SHT31;53770;42.334;23.550;2022-10-31T17:54:44;14.84;55.84
66861;SHT31;53770;42.334;23.550;2022-10-31T17:57:11;14.80;55.79
66861;SHT31;53770;42.334;23.550;2022-10-31T17:59:41;14.71;55.98